Burgtor — V2OR7 — position and weather

sailwx.info

Track history (hours):
 
Tides and Currents Weather Stations Pressure Air Temp Water Temp Dewpoint Dewpoint Depression Visibility Wind Speed Wind Dir Waves Ship Positions

Burgtor

Last reported at 2017-Nov-14 17:01 UTC. Time now 2017-Nov-23 03:56 UTC.
Position N 37°03' E 013°40'.
Warning: this ship's position is 8 days out of date.

Length 87 m; draft 5.5 m.

Type: Cargo ship. MMSI: 304665000.

Date/timePositionNaut miles runAvg speedWind from/ knotsBaromVisibWave heightAir tempDewpointWater temp
2017-Nov-14 17:01N 37°03' E 013°40'0 7.5
2017-Nov-14 16:58N 37°02' E 013°40'3 7.5
2017-Nov-14 16:30N 37°01' E 013°44'4 7.3
2017-Nov-14 16:00N 36°59' E 013°48'3 7.0
2017-Nov-14 15:30N 36°56' E 013°51'4 7.0
2017-Nov-14 15:00N 36°54' E 013°55'3 7.1
2017-Nov-14 14:31N 36°53' E 013°59'4 7.3
2017-Nov-14 14:00N 36°51' E 014°03'4 7.2
2017-Nov-14 13:30N 36°50' E 014°07'4 7.9
2017-Nov-14 13:00N 36°48' E 014°11'4 8.1
2017-Nov-14 12:30N 36°45' E 014°15'4 7.8
2017-Nov-14 12:00N 36°43' E 014°20'4 8.0
2017-Nov-14 11:30N 36°41' E 014°24'4 7.9
2017-Nov-14 11:01N 36°40' E 014°28'4 7.4
2017-Nov-14 10:30N 36°39' E 014°33'  
2017-Nov-11 02:59N 44°17' E 013°10'5 9.0
2017-Nov-11 02:28N 44°21' E 013°08'4 9.0
2017-Nov-11 02:00N 44°25' E 013°06'4 9.1
2017-Nov-11 01:31N 44°29' E 013°04'5 9.0
2017-Nov-11 01:00N 44°34' E 013°02'4 9.0
2017-Nov-11 00:31N 44°38' E 013°00'5 9.0
2017-Nov-11 00:00N 44°42' E 012°58'4 8.9
2017-Nov-10 23:30N 44°46' E 012°56'4 9.0
2017-Nov-10 23:00N 44°51' E 012°54'5 9.1
2017-Nov-10 22:30N 44°55' E 012°51'5 9.2
2017-Nov-10 22:01N 44°59' E 012°48'5 9.2
2017-Nov-10 21:30N 45°03' E 012°45'4 8.9
2017-Nov-10 21:00N 45°07' E 012°42'4 9.0
2017-Nov-10 20:30N 45°09' E 012°36'5 9.1
2017-Nov-10 20:01N 45°11' E 012°30'4 8.9
2017-Nov-10 19:31N 45°13' E 012°25'4 8.6
2017-Nov-10 19:00N 45°14' E 012°19'2 4.4
2017-Nov-10 18:30N 45°13' E 012°16'0 0.5
2017-Nov-10 17:59N 45°13' E 012°16'0 0.0
2017-Nov-10 17:26N 45°13' E 012°16'0 0.0
2017-Nov-10 16:59N 45°13' E 012°16'0 0.0
2017-Nov-10 16:23N 45°13' E 012°16'0 0.0
2017-Nov-10 15:56N 45°13' E 012°16'0 0.0
2017-Nov-10 15:26N 45°13' E 012°16'0 0.0
2017-Nov-10 14:59N 45°13' E 012°16'0 0.0
2017-Nov-10 14:23N 45°13' E 012°16'0 0.0
2017-Nov-10 13:56N 45°13' E 012°16'0 0.0
2017-Nov-10 13:14N 45°13' E 012°16'0 0.0
2017-Nov-10 12:47N 45°13' E 012°16'0 0.0
2017-Nov-10 12:29N 45°13' E 012°16'0 0.0
2017-Nov-10 11:56N 45°13' E 012°16'0 0.0
2017-Nov-10 11:20N 45°13' E 012°16'0 0.0
2017-Nov-10 10:56N 45°13' E 012°16'0 0.0
2017-Nov-10 10:17N 45°13' E 012°16'0 0.0
2017-Nov-10 09:53N 45°13' E 012°16'0 0.0
2017-Nov-10 09:17N 45°13' E 012°16'0 0.0
2017-Nov-10 08:47N 45°13' E 012°16'0 0.0
2017-Nov-10 08:29N 45°13' E 012°16'0 0.0
2017-Nov-10 07:56N 45°13' E 012°16'0 0.0
2017-Nov-10 07:29N 45°13' E 012°16'1 2.7
2017-Nov-10 07:00N 45°14' E 012°17'3 5.0
2017-Nov-10 06:30N 45°14' E 012°20'2 4.5
2017-Nov-10 06:00N 45°14' E 012°23'1 2.8
2017-Nov-10 05:30N 45°14' E 012°25'2 4.3
2017-Nov-10 05:00N 45°15' E 012°28'3 6.4
2017-Nov-10 04:30N 45°17' E 012°31'3 6.5
2017-Nov-10 04:00N 45°19' E 012°35'3 6.5
2017-Nov-10 03:30N 45°20' E 012°40'4 7.0
2017-Nov-10 03:00N 45°21' E 012°44'4 7.5
2017-Nov-10 02:30N 45°23' E 012°49'4 7.5
2017-Nov-10 02:00N 45°25' E 012°53'4 7.5
2017-Nov-10 01:30N 45°27' E 012°58'4 7.4
2017-Nov-10 01:00N 45°29' E 013°03'4 7.3
2017-Nov-10 00:30N 45°30' E 013°07'4 7.4
2017-Nov-10 00:00N 45°32' E 013°12'4 7.3
2017-Nov-09 23:30N 45°33' E 013°17'4 7.4
2017-Nov-09 23:00N 45°35' E 013°22'4 7.4
2017-Nov-09 22:30N 45°36' E 013°27'4 7.5
2017-Nov-09 22:00N 45°38' E 013°31'4 7.9
2017-Nov-09 21:30N 45°40' E 013°36'4 7.4
2017-Nov-09 21:00N 45°44' E 013°36'4 7.3
2017-Nov-09 20:26N 45°47' E 013°33'0 0.1
2017-Nov-09 19:56N 45°47' E 013°33'0 0.0
2017-Nov-09 19:29N 45°47' E 013°33'0 0.0
2017-Nov-09 18:59N 45°47' E 013°33'0 0.0
2017-Nov-09 18:29N 45°47' E 013°33'0 0.0
2017-Nov-09 17:59N 45°47' E 013°33'0 0.0
2017-Nov-09 17:29N 45°47' E 013°33'0 0.0
2017-Nov-09 16:56N 45°47' E 013°33'0 0.0
2017-Nov-09 16:23N 45°47' E 013°33'0 0.0
2017-Nov-09 15:59N 45°47' E 013°33'0 0.0
2017-Nov-09 15:29N 45°47' E 013°33'0 0.0
2017-Nov-09 14:59N 45°47' E 013°33'0 0.0
2017-Nov-09 14:23N 45°47' E 013°33'0 0.0
2017-Nov-09 13:53N 45°47' E 013°33'0 0.0
2017-Nov-09 13:29N 45°47' E 013°33'0 0.0
2017-Nov-09 12:56N 45°47' E 013°33'0 0.0
2017-Nov-09 12:23N 45°47' E 013°33'0 0.0
2017-Nov-09 11:53N 45°47' E 013°33'0 0.0
2017-Nov-09 11:29N 45°47' E 013°33'0 0.0
2017-Nov-09 10:53N 45°47' E 013°33'0 0.0
2017-Nov-09 10:23N 45°47' E 013°33'0 0.0
2017-Nov-09 09:59N 45°47' E 013°33'0 0.0
2017-Nov-09 09:29N 45°47' E 013°33'0 0.0
2017-Nov-09 08:59N 45°47' E 013°33'0 0.0
2017-Nov-09 08:29N 45°47' E 013°33'0 0.0
2017-Nov-09 07:50N 45°47' E 013°33'0 0.0
2017-Nov-09 07:29N 45°47' E 013°33'0 0.0
2017-Nov-09 06:59N 45°47' E 013°33'0 0.0
2017-Nov-09 06:23N 45°47' E 013°33'0 0.0
2017-Nov-09 05:59N 45°47' E 013°33'0 0.0
2017-Nov-09 05:23N 45°47' E 013°33'0 0.0
2017-Nov-09 04:41N 45°47' E 013°33'0 0.0
2017-Nov-09 04:29N 45°47' E 013°33'0 0.0
2017-Nov-09 03:59N 45°47' E 013°33'0 0.0
2017-Nov-09 03:23N 45°47' E 013°33'0 0.0
2017-Nov-09 02:59N 45°47' E 013°33'0 0.0
2017-Nov-09 02:17N 45°47' E 013°33'0 0.0
2017-Nov-09 01:56N 45°47' E 013°33'0 0.0
2017-Nov-09 01:23N 45°47' E 013°33'0 0.0
2017-Nov-09 00:53N 45°47' E 013°33'0 0.0
2017-Nov-09 00:29N 45°47' E 013°33'0 0.0
2017-Nov-08 23:56N 45°47' E 013°33'0 0.0
2017-Nov-08 23:26N 45°47' E 013°33'0 0.0
2017-Nov-08 22:56N 45°47' E 013°33'0 0.0
2017-Nov-08 22:28N 45°47' E 013°33'0 0.0
2017-Nov-08 21:58N 45°47' E 013°33'0 0.0
2017-Nov-08 21:28N 45°47' E 013°33'0 0.0
2017-Nov-08 20:58N 45°47' E 013°33'0 0.0
2017-Nov-08 20:28N 45°47' E 013°33'0 0.0
2017-Nov-08 19:58N 45°47' E 013°33'0 0.0
2017-Nov-08 19:28N 45°47' E 013°33'0 0.0
2017-Nov-08 18:58N 45°47' E 013°33'0 0.0
2017-Nov-08 18:25N 45°47' E 013°33'0 0.0
2017-Nov-08 17:58N 45°47' E 013°33'0 0.0
2017-Nov-08 17:28N 45°47' E 013°33'0 0.0
2017-Nov-08 17:00N 45°47' E 013°33'1 2.6
2017-Nov-08 16:30N 45°46' E 013°34'3 6.6
2017-Nov-08 16:00N 45°44' E 013°38'0 0.7
2017-Nov-08 15:29N 45°44' E 013°38'0 0.0
2017-Nov-08 14:56N 45°44' E 013°38'0 0.0
2017-Nov-08 14:29N 45°44' E 013°38'0 0.1
2017-Nov-08 13:56N 45°44' E 013°38'0 0.0
2017-Nov-08 13:26N 45°44' E 013°38'0 0.0
2017-Nov-08 12:50N 45°44' E 013°38'0 0.0
2017-Nov-08 12:26N 45°44' E 013°38'0 0.0
2017-Nov-08 11:59N 45°44' E 013°38'0 0.0
2017-Nov-08 11:28N 45°44' E 013°38'0 0.1
2017-Nov-08 10:52N 45°44' E 013°38'0 0.0
2017-Nov-08 10:25N 45°44' E 013°38'0 0.0
2017-Nov-08 09:49N 45°44' E 013°38'0 0.0
2017-Nov-08 09:25N 45°44' E 013°38'0 0.0
2017-Nov-08 08:55N 45°44' E 013°38'0 0.0
2017-Nov-08 08:22N 45°44' E 013°38'0 0.0
2017-Nov-08 07:55N 45°44' E 013°38'0 0.1
2017-Nov-08 07:25N 45°44' E 013°38'0 0.0
2017-Nov-08 06:58N 45°44' E 013°38'0 0.0
2017-Nov-08 06:28N 45°44' E 013°38'0 0.0
2017-Nov-08 05:58N 45°44' E 013°38'0 0.0
2017-Nov-08 05:25N 45°44' E 013°38'0 0.0
2017-Nov-08 04:58N 45°44' E 013°38'0 0.0
2017-Nov-08 04:28N 45°44' E 013°38'0 0.1
2017-Nov-08 03:52N 45°44' E 013°38'0 0.0
2017-Nov-08 03:28N 45°44' E 013°38'0 0.0
2017-Nov-08 02:58N 45°44' E 013°38'0 0.0
2017-Nov-08 02:25N 45°44' E 013°38'0 0.0
2017-Nov-08 01:55N 45°44' E 013°38'0 0.0
2017-Nov-08 01:28N 45°44' E 013°38'0 0.0
2017-Nov-08 00:55N 45°44' E 013°38'0 0.1
2017-Nov-08 00:25N 45°44' E 013°38'0 0.0
2017-Nov-07 23:55N 45°44' E 013°38'0 0.0
2017-Nov-07 23:28N 45°44' E 013°38'0 0.0
2017-Nov-07 22:58N 45°44' E 013°38'0 0.0
2017-Nov-07 22:25N 45°44' E 013°38'0 0.0
2017-Nov-07 21:55N 45°44' E 013°38'0 0.0
2017-Nov-07 21:28N 45°44' E 013°38'0 0.0
2017-Nov-07 20:58N 45°44' E 013°38'0 0.0
2017-Nov-07 20:25N 45°44' E 013°38'0 0.0
2017-Nov-07 19:58N 45°44' E 013°38'0 0.1
2017-Nov-07 19:28N 45°44' E 013°38'0 0.0
2017-Nov-07 18:58N 45°44' E 013°38'0 0.1
2017-Nov-07 18:28N 45°44' E 013°38'0 0.0
2017-Nov-07 17:58N 45°44' E 013°38'0 0.0
2017-Nov-07 17:28N 45°44' E 013°38'0 0.0
2017-Nov-07 16:58N 45°44' E 013°38'0 0.0
2017-Nov-07 16:25N 45°44' E 013°38'0 0.0
2017-Nov-07 15:40N 45°44' E 013°38'0 0.1
2017-Nov-07 15:22N 45°44' E 013°38'0 0.1
2017-Nov-07 14:58N 45°44' E 013°38'0 0.0
2017-Nov-07 14:25N 45°44' E 013°38'0 0.0
2017-Nov-07 13:58N 45°44' E 013°38'0 0.1
2017-Nov-07 13:25N 45°44' E 013°38'0 0.1
2017-Nov-07 12:55N 45°44' E 013°38'0 0.1
2017-Nov-07 12:29N 45°44' E 013°38'1 1.1
2017-Nov-07 12:00N 45°44' E 013°38'4 8.2
2017-Nov-07 11:30N 45°39' E 013°38'4 8.1
2017-Nov-07 11:00N 45°36' E 013°34'4 8.3
2017-Nov-07 10:30N 45°33' E 013°30'4 8.4
2017-Nov-07 10:00N 45°32' E 013°24'4 7.2
2017-Nov-07 09:30N 45°31' E 013°19'4 7.2
2017-Nov-07 09:01N 45°33' E 013°16'4 9.0
2017-Nov-07 08:30N 45°38' E 013°16'4 8.7
2017-Nov-07 08:00N 45°42' E 013°15'4 7.3
2017-Nov-07 07:30N 45°46' E 013°15'2 4.0
2017-Nov-07 06:57N 45°48' E 013°14'0 0.0
2017-Nov-07 06:30N 45°48' E 013°14'0 0.0
2017-Nov-07 05:51N 45°48' E 013°14'0 0.0
2017-Nov-07 05:30N 45°48' E 013°14'0 0.0
2017-Nov-07 05:00N 45°48' E 013°14'0 0.0
2017-Nov-07 04:30N 45°48' E 013°14'0 0.0
2017-Nov-07 03:57N 45°48' E 013°14'0 0.0
2017-Nov-07 03:30N 45°48' E 013°14'0 0.0
2017-Nov-07 03:00N 45°48' E 013°14'0 0.0
2017-Nov-07 02:30N 45°48' E 013°14'0 0.0
2017-Nov-07 01:57N 45°48' E 013°14'0 0.0
2017-Nov-07 01:30N 45°48' E 013°14'0 0.0
2017-Nov-07 00:57N 45°48' E 013°14'0 0.0
2017-Nov-07 00:30N 45°48' E 013°14'0 0.0
2017-Nov-07 00:00N 45°48' E 013°14'0 0.0
2017-Nov-06 23:30N 45°48' E 013°14'0 0.0
2017-Nov-06 23:00N 45°48' E 013°14'0 0.0
2017-Nov-06 22:21N 45°48' E 013°14'0 0.0
2017-Nov-06 21:54N 45°48' E 013°14'0 0.0
2017-Nov-06 21:30N 45°48' E 013°14'0 0.0
2017-Nov-06 20:57N 45°48' E 013°14'0 0.0
2017-Nov-06 20:30N 45°48' E 013°14'0 0.0
2017-Nov-06 02:26N 45°48' E 013°14'0 0.0
2017-Nov-06 01:56N 45°48' E 013°14'0 0.0
2017-Nov-06 01:29N 45°48' E 013°14'0 0.0
2017-Nov-06 00:59N 45°48' E 013°14'0 0.0
2017-Nov-06 00:29N 45°48' E 013°14'0 0.0
2017-Nov-05 23:56N 45°48' E 013°14'0 0.0
2017-Nov-05 23:29N 45°48' E 013°14'0 0.0
2017-Nov-05 22:59N 45°48' E 013°14'0 0.0
2017-Nov-05 22:29N 45°48' E 013°14'0 0.0
2017-Nov-05 21:53N 45°48' E 013°14'0 0.0
2017-Nov-05 21:29N 45°48' E 013°14'0 0.0
2017-Nov-05 20:56N 45°48' E 013°14'0 0.0
2017-Nov-05 20:29N 45°48' E 013°14'0 0.0
2017-Nov-05 19:59N 45°48' E 013°14'0 0.0
2017-Nov-05 19:29N 45°48' E 013°14'0 0.0
2017-Nov-05 18:59N 45°48' E 013°14'0 0.0
2017-Nov-05 18:26N 45°48' E 013°14'0 0.0
2017-Nov-05 17:56N 45°48' E 013°14'0 0.0
2017-Nov-05 17:29N 45°48' E 013°14'0 0.0
2017-Nov-05 16:59N 45°48' E 013°14'0 0.0
2017-Nov-05 16:29N 45°48' E 013°14'0 0.0
2017-Nov-05 15:59N 45°48' E 013°14'0 0.0
2017-Nov-05 15:29N 45°48' E 013°14'0 0.0
2017-Nov-05 14:59N 45°48' E 013°14'0 0.0
2017-Nov-05 14:26N 45°48' E 013°14'0 0.0
2017-Nov-05 13:59N 45°48' E 013°14'0 0.0
2017-Nov-05 13:29N 45°48' E 013°14'0 0.0
2017-Nov-05 12:56N 45°48' E 013°14'0 0.0
2017-Nov-05 12:29N 45°48' E 013°14'0 0.0
2017-Nov-05 11:59N 45°48' E 013°14'0 0.0
2017-Nov-05 11:26N 45°48' E 013°14'0 0.0
2017-Nov-05 10:53N 45°48' E 013°14'0 0.0
2017-Nov-05 10:26N 45°48' E 013°14'0 0.0
2017-Nov-05 09:59N 45°48' E 013°14'0 0.0
2017-Nov-05 09:29N 45°48' E 013°14'0 0.0
2017-Nov-05 08:59N 45°48' E 013°14'0 0.0
2017-Nov-05 08:29N 45°48' E 013°14'0 0.0
2017-Nov-05 07:59N 45°48' E 013°14'0 0.0
2017-Nov-05 07:17N 45°48' E 013°14'0 0.0
2017-Nov-05 06:53N 45°48' E 013°14'0 0.0
2017-Nov-05 06:17N 45°48' E 013°14'0 0.0
2017-Nov-05 05:56N 45°48' E 013°14'0 0.0
2017-Nov-05 05:29N 45°48' E 013°14'0 0.0
2017-Nov-05 04:59N 45°48' E 013°14'0 0.0
2017-Nov-05 04:28N 45°48' E 013°14'0 0.0
2017-Nov-05 03:43N 45°48' E 013°14'0 0.0
2017-Nov-05 03:28N 45°48' E 013°14'0 0.0
2017-Nov-05 02:55N 45°48' E 013°14'0 0.0
2017-Nov-05 02:28N 45°48' E 013°14'0 0.0
2017-Nov-05 01:58N 45°48' E 013°14'0 0.0
2017-Nov-05 01:28N 45°48' E 013°14'0 0.0
2017-Nov-05 00:58N 45°48' E 013°14'0 0.0
2017-Nov-05 00:28N 45°48' E 013°14'0 0.0
2017-Nov-04 23:58N 45°48' E 013°14'0 0.0
2017-Nov-04 23:25N 45°48' E 013°14'0 0.0
2017-Nov-04 22:52N 45°48' E 013°14'0 0.0
2017-Nov-04 22:28N 45°48' E 013°14'0 0.0
2017-Nov-04 21:58N 45°48' E 013°14'0 0.0
2017-Nov-04 21:28N 45°48' E 013°14'0 0.0
2017-Nov-04 20:58N 45°48' E 013°14'0 0.0
2017-Nov-04 20:28N 45°48' E 013°14'0 0.0
2017-Nov-04 19:55N 45°48' E 013°14'0 0.0
2017-Nov-04 19:28N 45°48' E 013°14'0 0.0
2017-Nov-04 18:58N 45°48' E 013°14'0 0.0
2017-Nov-04 18:28N 45°48' E 013°14'0 0.0
2017-Nov-04 17:58N 45°48' E 013°14'0 0.0
2017-Nov-04 17:28N 45°48' E 013°14'  
Track history (hours):
 
Tides and Currents Weather Stations Pressure Air Temp Water Temp Dewpoint Dewpoint Depression Visibility Wind Speed Wind Dir Waves Ship Positions

Burgtor

Last reported at 2017-Nov-14 17:01 UTC. Time now 2017-Nov-23 03:56 UTC.
Position N 37°03' E 013°40'.
Warning: this ship's position is 8 days out of date.

Length 87 m; draft 5.5 m.

Type: Cargo ship. MMSI: 304665000.

Date/timePositionNaut miles runAvg speedWind from/ knotsBaromVisibWave heightAir tempDewpointWater temp
2017-Nov-14 17:01N 37°03' E 013°40'0 7.5
2017-Nov-14 16:58N 37°02' E 013°40'3 7.5
2017-Nov-14 16:30N 37°01' E 013°44'4 7.3
2017-Nov-14 16:00N 36°59' E 013°48'3 7.0
2017-Nov-14 15:30N 36°56' E 013°51'4 7.0
2017-Nov-14 15:00N 36°54' E 013°55'3 7.1
2017-Nov-14 14:31N 36°53' E 013°59'4 7.3
2017-Nov-14 14:00N 36°51' E 014°03'4 7.2
2017-Nov-14 13:30N 36°50' E 014°07'4 7.9
2017-Nov-14 13:00N 36°48' E 014°11'4 8.1
2017-Nov-14 12:30N 36°45' E 014°15'4 7.8
2017-Nov-14 12:00N 36°43' E 014°20'4 8.0
2017-Nov-14 11:30N 36°41' E 014°24'4 7.9
2017-Nov-14 11:01N 36°40' E 014°28'4 7.4
2017-Nov-14 10:30N 36°39' E 014°33'  
2017-Nov-11 02:59N 44°17' E 013°10'5 9.0
2017-Nov-11 02:28N 44°21' E 013°08'4 9.0
2017-Nov-11 02:00N 44°25' E 013°06'4 9.1
2017-Nov-11 01:31N 44°29' E 013°04'5 9.0
2017-Nov-11 01:00N 44°34' E 013°02'4 9.0
2017-Nov-11 00:31N 44°38' E 013°00'5 9.0
2017-Nov-11 00:00N 44°42' E 012°58'4 8.9
2017-Nov-10 23:30N 44°46' E 012°56'4 9.0
2017-Nov-10 23:00N 44°51' E 012°54'5 9.1
2017-Nov-10 22:30N 44°55' E 012°51'5 9.2
2017-Nov-10 22:01N 44°59' E 012°48'5 9.2
2017-Nov-10 21:30N 45°03' E 012°45'4 8.9
2017-Nov-10 21:00N 45°07' E 012°42'4 9.0
2017-Nov-10 20:30N 45°09' E 012°36'5 9.1
2017-Nov-10 20:01N 45°11' E 012°30'4 8.9
2017-Nov-10 19:31N 45°13' E 012°25'4 8.6
2017-Nov-10 19:00N 45°14' E 012°19'2 4.4
2017-Nov-10 18:30N 45°13' E 012°16'0 0.5
2017-Nov-10 17:59N 45°13' E 012°16'0 0.0
2017-Nov-10 17:26N 45°13' E 012°16'0 0.0
2017-Nov-10 16:59N 45°13' E 012°16'0 0.0
2017-Nov-10 16:23N 45°13' E 012°16'0 0.0
2017-Nov-10 15:56N 45°13' E 012°16'0 0.0
2017-Nov-10 15:26N 45°13' E 012°16'0 0.0
2017-Nov-10 14:59N 45°13' E 012°16'0 0.0
2017-Nov-10 14:23N 45°13' E 012°16'0 0.0
2017-Nov-10 13:56N 45°13' E 012°16'0 0.0
2017-Nov-10 13:14N 45°13' E 012°16'0 0.0
2017-Nov-10 12:47N 45°13' E 012°16'0 0.0
2017-Nov-10 12:29N 45°13' E 012°16'0 0.0
2017-Nov-10 11:56N 45°13' E 012°16'0 0.0
2017-Nov-10 11:20N 45°13' E 012°16'0 0.0
2017-Nov-10 10:56N 45°13' E 012°16'0 0.0
2017-Nov-10 10:17N 45°13' E 012°16'0 0.0
2017-Nov-10 09:53N 45°13' E 012°16'0 0.0
2017-Nov-10 09:17N 45°13' E 012°16'0 0.0
2017-Nov-10 08:47N 45°13' E 012°16'0 0.0
2017-Nov-10 08:29N 45°13' E 012°16'0 0.0
2017-Nov-10 07:56N 45°13' E 012°16'0 0.0
2017-Nov-10 07:29N 45°13' E 012°16'1 2.7
2017-Nov-10 07:00N 45°14' E 012°17'3 5.0
2017-Nov-10 06:30N 45°14' E 012°20'2 4.5
2017-Nov-10 06:00N 45°14' E 012°23'1 2.8
2017-Nov-10 05:30N 45°14' E 012°25'2 4.3
2017-Nov-10 05:00N 45°15' E 012°28'3 6.4
2017-Nov-10 04:30N 45°17' E 012°31'3 6.5
2017-Nov-10 04:00N 45°19' E 012°35'3 6.5
2017-Nov-10 03:30N 45°20' E 012°40'4 7.0
2017-Nov-10 03:00N 45°21' E 012°44'4 7.5
2017-Nov-10 02:30N 45°23' E 012°49'4 7.5
2017-Nov-10 02:00N 45°25' E 012°53'4 7.5
2017-Nov-10 01:30N 45°27' E 012°58'4 7.4
2017-Nov-10 01:00N 45°29' E 013°03'4 7.3
2017-Nov-10 00:30N 45°30' E 013°07'4 7.4
2017-Nov-10 00:00N 45°32' E 013°12'4 7.3
2017-Nov-09 23:30N 45°33' E 013°17'4 7.4
2017-Nov-09 23:00N 45°35' E 013°22'4 7.4
2017-Nov-09 22:30N 45°36' E 013°27'4 7.5
2017-Nov-09 22:00N 45°38' E 013°31'4 7.9
2017-Nov-09 21:30N 45°40' E 013°36'4 7.4
2017-Nov-09 21:00N 45°44' E 013°36'4 7.3
2017-Nov-09 20:26N 45°47' E 013°33'0 0.1
2017-Nov-09 19:56N 45°47' E 013°33'0 0.0
2017-Nov-09 19:29N 45°47' E 013°33'0 0.0
2017-Nov-09 18:59N 45°47' E 013°33'0 0.0
2017-Nov-09 18:29N 45°47' E 013°33'0 0.0
2017-Nov-09 17:59N 45°47' E 013°33'0 0.0
2017-Nov-09 17:29N 45°47' E 013°33'0 0.0
2017-Nov-09 16:56N 45°47' E 013°33'0 0.0
2017-Nov-09 16:23N 45°47' E 013°33'0 0.0
2017-Nov-09 15:59N 45°47' E 013°33'0 0.0
2017-Nov-09 15:29N 45°47' E 013°33'0 0.0
2017-Nov-09 14:59N 45°47' E 013°33'0 0.0
2017-Nov-09 14:23N 45°47' E 013°33'0 0.0
2017-Nov-09 13:53N 45°47' E 013°33'0 0.0
2017-Nov-09 13:29N 45°47' E 013°33'0 0.0
2017-Nov-09 12:56N 45°47' E 013°33'0 0.0
2017-Nov-09 12:23N 45°47' E 013°33'0 0.0
2017-Nov-09 11:53N 45°47' E 013°33'0 0.0
2017-Nov-09 11:29N 45°47' E 013°33'0 0.0
2017-Nov-09 10:53N 45°47' E 013°33'0 0.0
2017-Nov-09 10:23N 45°47' E 013°33'0 0.0
2017-Nov-09 09:59N 45°47' E 013°33'0 0.0
2017-Nov-09 09:29N 45°47' E 013°33'0 0.0
2017-Nov-09 08:59N 45°47' E 013°33'0 0.0
2017-Nov-09 08:29N 45°47' E 013°33'0 0.0
2017-Nov-09 07:50N 45°47' E 013°33'0 0.0
2017-Nov-09 07:29N 45°47' E 013°33'0 0.0
2017-Nov-09 06:59N 45°47' E 013°33'0 0.0
2017-Nov-09 06:23N 45°47' E 013°33'0 0.0
2017-Nov-09 05:59N 45°47' E 013°33'0 0.0
2017-Nov-09 05:23N 45°47' E 013°33'0 0.0
2017-Nov-09 04:41N 45°47' E 013°33'0 0.0
2017-Nov-09 04:29N 45°47' E 013°33'0 0.0
2017-Nov-09 03:59N 45°47' E 013°33'0 0.0
2017-Nov-09 03:23N 45°47' E 013°33'0 0.0
2017-Nov-09 02:59N 45°47' E 013°33'0 0.0
2017-Nov-09 02:17N 45°47' E 013°33'0 0.0
2017-Nov-09 01:56N 45°47' E 013°33'0 0.0
2017-Nov-09 01:23N 45°47' E 013°33'0 0.0
2017-Nov-09 00:53N 45°47' E 013°33'0 0.0
2017-Nov-09 00:29N 45°47' E 013°33'0 0.0
2017-Nov-08 23:56N 45°47' E 013°33'0 0.0
2017-Nov-08 23:26N 45°47' E 013°33'0 0.0
2017-Nov-08 22:56N 45°47' E 013°33'0 0.0
2017-Nov-08 22:28N 45°47' E 013°33'0 0.0
2017-Nov-08 21:58N 45°47' E 013°33'0 0.0
2017-Nov-08 21:28N 45°47' E 013°33'0 0.0
2017-Nov-08 20:58N 45°47' E 013°33'0 0.0
2017-Nov-08 20:28N 45°47' E 013°33'0 0.0
2017-Nov-08 19:58N 45°47' E 013°33'0 0.0
2017-Nov-08 19:28N 45°47' E 013°33'0 0.0
2017-Nov-08 18:58N 45°47' E 013°33'0 0.0
2017-Nov-08 18:25N 45°47' E 013°33'0 0.0
2017-Nov-08 17:58N 45°47' E 013°33'0 0.0
2017-Nov-08 17:28N 45°47' E 013°33'0 0.0
2017-Nov-08 17:00N 45°47' E 013°33'1 2.6
2017-Nov-08 16:30N 45°46' E 013°34'3 6.6
2017-Nov-08 16:00N 45°44' E 013°38'0 0.7
2017-Nov-08 15:29N 45°44' E 013°38'0 0.0
2017-Nov-08 14:56N 45°44' E 013°38'0 0.0
2017-Nov-08 14:29N 45°44' E 013°38'0 0.1
2017-Nov-08 13:56N 45°44' E 013°38'0 0.0
2017-Nov-08 13:26N 45°44' E 013°38'0 0.0
2017-Nov-08 12:50N 45°44' E 013°38'0 0.0
2017-Nov-08 12:26N 45°44' E 013°38'0 0.0
2017-Nov-08 11:59N 45°44' E 013°38'0 0.0
2017-Nov-08 11:28N 45°44' E 013°38'0 0.1
2017-Nov-08 10:52N 45°44' E 013°38'0 0.0
2017-Nov-08 10:25N 45°44' E 013°38'0 0.0
2017-Nov-08 09:49N 45°44' E 013°38'0 0.0
2017-Nov-08 09:25N 45°44' E 013°38'0 0.0
2017-Nov-08 08:55N 45°44' E 013°38'0 0.0
2017-Nov-08 08:22N 45°44' E 013°38'0 0.0
2017-Nov-08 07:55N 45°44' E 013°38'0 0.1
2017-Nov-08 07:25N 45°44' E 013°38'0 0.0
2017-Nov-08 06:58N 45°44' E 013°38'0 0.0
2017-Nov-08 06:28N 45°44' E 013°38'0 0.0
2017-Nov-08 05:58N 45°44' E 013°38'0 0.0
2017-Nov-08 05:25N 45°44' E 013°38'0 0.0
2017-Nov-08 04:58N 45°44' E 013°38'0 0.0
2017-Nov-08 04:28N 45°44' E 013°38'0 0.1
2017-Nov-08 03:52N 45°44' E 013°38'0 0.0
2017-Nov-08 03:28N 45°44' E 013°38'0 0.0
2017-Nov-08 02:58N 45°44' E 013°38'0 0.0
2017-Nov-08 02:25N 45°44' E 013°38'0 0.0
2017-Nov-08 01:55N 45°44' E 013°38'0 0.0
2017-Nov-08 01:28N 45°44' E 013°38'0 0.0
2017-Nov-08 00:55N 45°44' E 013°38'0 0.1
2017-Nov-08 00:25N 45°44' E 013°38'0 0.0
2017-Nov-07 23:55N 45°44' E 013°38'0 0.0
2017-Nov-07 23:28N 45°44' E 013°38'0 0.0
2017-Nov-07 22:58N 45°44' E 013°38'0 0.0
2017-Nov-07 22:25N 45°44' E 013°38'0 0.0
2017-Nov-07 21:55N 45°44' E 013°38'0 0.0
2017-Nov-07 21:28N 45°44' E 013°38'0 0.0
2017-Nov-07 20:58N 45°44' E 013°38'0 0.0
2017-Nov-07 20:25N 45°44' E 013°38'0 0.0
2017-Nov-07 19:58N 45°44' E 013°38'0 0.1
2017-Nov-07 19:28N 45°44' E 013°38'0 0.0
2017-Nov-07 18:58N 45°44' E 013°38'0 0.1
2017-Nov-07 18:28N 45°44' E 013°38'0 0.0
2017-Nov-07 17:58N 45°44' E 013°38'0 0.0
2017-Nov-07 17:28N 45°44' E 013°38'0 0.0
2017-Nov-07 16:58N 45°44' E 013°38'0 0.0
2017-Nov-07 16:25N 45°44' E 013°38'0 0.0
2017-Nov-07 15:40N 45°44' E 013°38'0 0.1
2017-Nov-07 15:22N 45°44' E 013°38'0 0.1
2017-Nov-07 14:58N 45°44' E 013°38'0 0.0
2017-Nov-07 14:25N 45°44' E 013°38'0 0.0
2017-Nov-07 13:58N 45°44' E 013°38'0 0.1
2017-Nov-07 13:25N 45°44' E 013°38'0 0.1
2017-Nov-07 12:55N 45°44' E 013°38'0 0.1
2017-Nov-07 12:29N 45°44' E 013°38'1 1.1
2017-Nov-07 12:00N 45°44' E 013°38'4 8.2
2017-Nov-07 11:30N 45°39' E 013°38'4 8.1
2017-Nov-07 11:00N 45°36' E 013°34'4 8.3
2017-Nov-07 10:30N 45°33' E 013°30'4 8.4
2017-Nov-07 10:00N 45°32' E 013°24'4 7.2
2017-Nov-07 09:30N 45°31' E 013°19'4 7.2
2017-Nov-07 09:01N 45°33' E 013°16'4 9.0
2017-Nov-07 08:30N 45°38' E 013°16'4 8.7
2017-Nov-07 08:00N 45°42' E 013°15'4 7.3
2017-Nov-07 07:30N 45°46' E 013°15'2 4.0
2017-Nov-07 06:57N 45°48' E 013°14'0 0.0
2017-Nov-07 06:30N 45°48' E 013°14'0 0.0
2017-Nov-07 05:51N 45°48' E 013°14'0 0.0
2017-Nov-07 05:30N 45°48' E 013°14'0 0.0
2017-Nov-07 05:00N 45°48' E 013°14'0 0.0
2017-Nov-07 04:30N 45°48' E 013°14'0 0.0
2017-Nov-07 03:57N 45°48' E 013°14'0 0.0
2017-Nov-07 03:30N 45°48' E 013°14'0 0.0
2017-Nov-07 03:00N 45°48' E 013°14'0 0.0
2017-Nov-07 02:30N 45°48' E 013°14'0 0.0
2017-Nov-07 01:57N 45°48' E 013°14'0 0.0
2017-Nov-07 01:30N 45°48' E 013°14'0 0.0
2017-Nov-07 00:57N 45°48' E 013°14'0 0.0
2017-Nov-07 00:30N 45°48' E 013°14'0 0.0
2017-Nov-07 00:00N 45°48' E 013°14'0 0.0
2017-Nov-06 23:30N 45°48' E 013°14'0 0.0
2017-Nov-06 23:00N 45°48' E 013°14'0 0.0
2017-Nov-06 22:21N 45°48' E 013°14'0 0.0
2017-Nov-06 21:54N 45°48' E 013°14'0 0.0
2017-Nov-06 21:30N 45°48' E 013°14'0 0.0
2017-Nov-06 20:57N 45°48' E 013°14'0 0.0
2017-Nov-06 20:30N 45°48' E 013°14'0 0.0
2017-Nov-06 02:26N 45°48' E 013°14'0 0.0
2017-Nov-06 01:56N 45°48' E 013°14'0 0.0
2017-Nov-06 01:29N 45°48' E 013°14'0 0.0
2017-Nov-06 00:59N 45°48' E 013°14'0 0.0
2017-Nov-06 00:29N 45°48' E 013°14'0 0.0
2017-Nov-05 23:56N 45°48' E 013°14'0 0.0
2017-Nov-05 23:29N 45°48' E 013°14'0 0.0
2017-Nov-05 22:59N 45°48' E 013°14'0 0.0
2017-Nov-05 22:29N 45°48' E 013°14'0 0.0
2017-Nov-05 21:53N 45°48' E 013°14'0 0.0
2017-Nov-05 21:29N 45°48' E 013°14'0 0.0
2017-Nov-05 20:56N 45°48' E 013°14'0 0.0
2017-Nov-05 20:29N 45°48' E 013°14'0 0.0
2017-Nov-05 19:59N 45°48' E 013°14'0 0.0
2017-Nov-05 19:29N 45°48' E 013°14'0 0.0
2017-Nov-05 18:59N 45°48' E 013°14'0 0.0
2017-Nov-05 18:26N 45°48' E 013°14'0 0.0
2017-Nov-05 17:56N 45°48' E 013°14'0 0.0
2017-Nov-05 17:29N 45°48' E 013°14'0 0.0
2017-Nov-05 16:59N 45°48' E 013°14'0 0.0
2017-Nov-05 16:29N 45°48' E 013°14'0 0.0
2017-Nov-05 15:59N 45°48' E 013°14'0 0.0
2017-Nov-05 15:29N 45°48' E 013°14'0 0.0
2017-Nov-05 14:59N 45°48' E 013°14'0 0.0
2017-Nov-05 14:26N 45°48' E 013°14'0 0.0
2017-Nov-05 13:59N 45°48' E 013°14'0 0.0
2017-Nov-05 13:29N 45°48' E 013°14'0 0.0
2017-Nov-05 12:56N 45°48' E 013°14'0 0.0
2017-Nov-05 12:29N 45°48' E 013°14'0 0.0
2017-Nov-05 11:59N 45°48' E 013°14'0 0.0
2017-Nov-05 11:26N 45°48' E 013°14'0 0.0
2017-Nov-05 10:53N 45°48' E 013°14'0 0.0
2017-Nov-05 10:26N 45°48' E 013°14'0 0.0
2017-Nov-05 09:59N 45°48' E 013°14'0 0.0
2017-Nov-05 09:29N 45°48' E 013°14'0 0.0
2017-Nov-05 08:59N 45°48' E 013°14'0 0.0
2017-Nov-05 08:29N 45°48' E 013°14'0 0.0
2017-Nov-05 07:59N 45°48' E 013°14'0 0.0
2017-Nov-05 07:17N 45°48' E 013°14'0 0.0
2017-Nov-05 06:53N 45°48' E 013°14'0 0.0
2017-Nov-05 06:17N 45°48' E 013°14'0 0.0
2017-Nov-05 05:56N 45°48' E 013°14'0 0.0
2017-Nov-05 05:29N 45°48' E 013°14'0 0.0
2017-Nov-05 04:59N 45°48' E 013°14'0 0.0
2017-Nov-05 04:28N 45°48' E 013°14'0 0.0
2017-Nov-05 03:43N 45°48' E 013°14'0 0.0
2017-Nov-05 03:28N 45°48' E 013°14'0 0.0
2017-Nov-05 02:55N 45°48' E 013°14'0 0.0
2017-Nov-05 02:28N 45°48' E 013°14'0 0.0
2017-Nov-05 01:58N 45°48' E 013°14'0 0.0
2017-Nov-05 01:28N 45°48' E 013°14'0 0.0
2017-Nov-05 00:58N 45°48' E 013°14'0 0.0
2017-Nov-05 00:28N 45°48' E 013°14'0 0.0
2017-Nov-04 23:58N 45°48' E 013°14'0 0.0
2017-Nov-04 23:25N 45°48' E 013°14'0 0.0
2017-Nov-04 22:52N 45°48' E 013°14'0 0.0
2017-Nov-04 22:28N 45°48' E 013°14'0 0.0
2017-Nov-04 21:58N 45°48' E 013°14'0 0.0
2017-Nov-04 21:28N 45°48' E 013°14'0 0.0
2017-Nov-04 20:58N 45°48' E 013°14'0 0.0
2017-Nov-04 20:28N 45°48' E 013°14'0 0.0
2017-Nov-04 19:55N 45°48' E 013°14'0 0.0
2017-Nov-04 19:28N 45°48' E 013°14'0 0.0
2017-Nov-04 18:58N 45°48' E 013°14'0 0.0
2017-Nov-04 18:28N 45°48' E 013°14'0 0.0
2017-Nov-04 17:58N 45°48' E 013°14'0 0.0
2017-Nov-04 17:28N 45°48' E 013°14'  

Dump ship's entire track history